sensor_id;sensor_type;location;lat;lon;timestamp;pressure;altitude;pressure_sealevel;temperature;humidity
46087;BME280;31824;49.648;8.640;2023-03-20T00:00:00;100565.75;;;7.48;100.00
46087;BME280;31824;49.648;8.640;2023-03-20T00:03:05;100574.53;;;7.48;100.00
46087;BME280;31824;49.648;8.640;2023-03-20T00:06:14;100580.94;;;7.59;100.00
46087;BME280;31824;49.648;8.640;2023-03-20T00:09:16;100574.44;;;7.71;100.00
46087;BME280;31824;49.648;8.640;2023-03-20T00:12:22;100571.72;;;7.78;100.00
46087;BME280;31824;49.648;8.640;2023-03-20T00:15:28;100576.97;;;7.78;100.00
46087;BME280;31824;49.648;8.640;2023-03-20T00:18:30;100577.53;;;7.92;100.00
46087;BME280;31824;49.648;8.640;2023-03-20T00:21:33;100585.69;;;8.11;100.00
46087;BME280;31824;49.648;8.640;2023-03-20T00:24:35;100586.78;;;8.13;100.00
46087;BME280;31824;49.648;8.640;2023-03-20T00:27:37;100585.41;;;8.33;100.00
46087;BME280;31824;49.648;8.640;2023-03-20T00:30:38;100592.16;;;8.47;100.00
46087;BME280;31824;49.648;8.640;2023-03-20T00:33:40;100594.81;;;8.55;100.00
46087;BME280;31824;49.648;8.640;2023-03-20T00:36:44;100594.47;;;8.52;100.00
46087;BME280;31824;49.648;8.640;2023-03-20T00:39:45;100598.38;;;8.56;100.00
46087;BME280;31824;49.648;8.640;2023-03-20T00:42:49;100603.59;;;8.56;100.00
46087;BME280;31824;49.648;8.640;2023-03-20T00:45:54;100593.72;;;8.53;100.00
46087;BME280;31824;49.648;8.640;2023-03-20T00:48:56;100600.72;;;8.61;100.00
46087;BME280;31824;49.648;8.640;2023-03-20T00:52:01;100597.50;;;8.64;100.00
46087;BME280;31824;49.648;8.640;2023-03-20T00:55:04;100594.75;;;8.71;100.00
46087;BME280;31824;49.648;8.640;2023-03-20T00:58:06;100595.19;;;8.67;100.00
46087;BME280;31824;49.648;8.640;2023-03-20T01:01:10;100598.31;;;8.72;100.00
46087;BME280;31824;49.648;8.640;2023-03-20T01:04:13;100599.38;;;8.74;100.00
46087;BME280;31824;49.648;8.640;2023-03-20T01:07:17;100605.22;;;8.71;100.00
46087;BME280;31824;49.648;8.640;2023-03-20T01:10:19;100609.72;;;8.72;100.00
46087;BME280;31824;49.648;8.640;2023-03-20T01:13:23;100605.06;;;8.70;100.00
46087;BME280;31824;49.648;8.640;2023-03-20T01:16:25;100601.25;;;8.75;100.00
46087;BME280;31824;49.648;8.640;2023-03-20T01:19:27;100600.50;;;8.76;100.00
46087;BME280;31824;49.648;8.640;2023-03-20T01:22:31;100607.31;;;8.83;100.00
46087;BME280;31824;49.648;8.640;2023-03-20T01:25:32;100604.06;;;8.85;100.00
46087;BME280;31824;49.648;8.640;2023-03-20T01:28:35;100605.00;;;8.86;100.00
46087;BME280;31824;49.648;8.640;2023-03-20T01:31:37;100602.84;;;8.82;100.00
46087;BME280;31824;49.648;8.640;2023-03-20T01:34:39;100603.44;;;8.79;100.00
46087;BME280;31824;49.648;8.640;2023-03-20T01:37:42;100611.56;;;8.73;100.00
46087;BME280;31824;49.648;8.640;2023-03-20T01:40:53;100616.84;;;8.82;100.00
46087;BME280;31824;49.648;8.640;2023-03-20T01:44:00;100612.88;;;8.86;100.00
46087;BME280;31824;49.648;8.640;2023-03-20T01:47:14;100615.34;;;8.84;100.00
46087;BME280;31824;49.648;8.640;2023-03-20T01:50:20;100620.22;;;8.81;100.00
46087;BME280;31824;49.648;8.640;2023-03-20T01:53:33;100620.84;;;8.78;100.00
46087;BME280;31824;49.648;8.640;2023-03-20T01:56:38;100620.41;;;8.83;100.00
46087;BME280;31824;49.648;8.640;2023-03-20T01:59:45;100618.25;;;8.87;100.00
46087;BME280;31824;49.648;8.640;2023-03-20T02:02:48;100617.44;;;8.79;100.00
46087;BME280;31824;49.648;8.640;2023-03-20T02:06:22;100619.63;;;8.84;100.00
46087;BME280;31824;49.648;8.640;2023-03-20T02:09:45;100610.69;;;8.82;100.00
46087;BME280;31824;49.648;8.640;2023-03-20T02:12:51;100619.03;;;8.86;100.00
46087;BME280;31824;49.648;8.640;2023-03-20T02:16:04;100613.00;;;8.78;100.00
46087;BME280;31824;49.648;8.640;2023-03-20T02:19:28;100613.91;;;8.79;100.00
46087;BME280;31824;49.648;8.640;2023-03-20T02:22:56;100626.25;;;8.80;100.00
46087;BME280;31824;49.648;8.640;2023-03-20T02:26:27;100619.19;;;8.88;100.00
46087;BME280;31824;49.648;8.640;2023-03-20T02:29:51;100606.69;;;8.85;100.00
46087;BME280;31824;49.648;8.640;2023-03-20T02:33:44;100621.63;;;8.86;100.00
46087;BME280;31824;49.648;8.640;2023-03-20T02:37:18;100620.41;;;8.83;100.00
46087;BME280;31824;49.648;8.640;2023-03-20T02:40:28;100615.50;;;8.86;100.00
46087;BME280;31824;49.648;8.640;2023-03-20T02:43:41;100624.56;;;8.89;100.00
46087;BME280;31824;49.648;8.640;2023-03-20T02:46:49;100620.88;;;8.87;100.00
46087;BME280;31824;49.648;8.640;2023-03-20T02:50:07;100620.56;;;8.84;100.00
46087;BME280;31824;49.648;8.640;2023-03-20T02:53:21;100621.63;;;8.86;100.00
46087;BME280;31824;49.648;8.640;2023-03-20T02:56:32;100630.59;;;8.88;100.00
46087;BME280;31824;49.648;8.640;2023-03-20T02:59:40;100624.25;;;8.86;100.00
46087;BME280;31824;49.648;8.640;2023-03-20T03:02:48;100625.53;;;8.90;100.00
46087;BME280;31824;49.648;8.640;2023-03-20T03:05:54;100627.72;;;8.94;100.00
46087;BME280;31824;49.648;8.640;2023-03-20T03:09:01;100638.63;;;8.90;100.00
46087;BME280;31824;49.648;8.640;2023-03-20T03:12:12;100636.47;;;8.94;100.00
46087;BME280;31824;49.648;8.640;2023-03-20T03:15:19;100628.03;;;8.97;100.00
46087;BME280;31824;49.648;8.640;2023-03-20T03:18:24;100635.56;;;8.94;100.00
46087;BME280;31824;49.648;8.640;2023-03-20T03:21:28;100638.34;;;8.95;100.00
46087;BME280;31824;49.648;8.640;2023-03-20T03:24:36;100633.56;;;9.00;100.00
46087;BME280;31824;49.648;8.640;2023-03-20T03:27:44;100632.81;;;9.01;100.00
46087;BME280;31824;49.648;8.640;2023-03-20T03:30:50;100633.75;;;9.02;100.00
46087;BME280;31824;49.648;8.640;2023-03-20T03:33:57;100628.19;;;8.99;100.00
46087;BME280;31824;49.648;8.640;2023-03-20T03:37:03;100628.69;;;9.03;100.00
46087;BME280;31824;49.648;8.640;2023-03-20T03:40:18;100624.50;;;9.05;100.00
46087;BME280;31824;49.648;8.640;2023-03-20T03:43:26;100626.38;;;9.06;100.00
46087;BME280;31824;49.648;8.640;2023-03-20T03:46:35;100625.13;;;9.03;100.00
46087;BME280;31824;49.648;8.640;2023-03-20T03:49:43;100634.06;;;9.05;100.00
46087;BME280;31824;49.648;8.640;2023-03-20T03:52:48;100626.53;;;9.08;100.00
46087;BME280;31824;49.648;8.640;2023-03-20T03:55:57;100630.84;;;9.07;100.00
46087;BME280;31824;49.648;8.640;2023-03-20T03:59:04;100632.53;;;9.07;100.00
46087;BME280;31824;49.648;8.640;2023-03-20T04:02:09;100635.34;;;9.08;100.00
46087;BME280;31824;49.648;8.640;2023-03-20T04:05:12;100645.19;;;9.11;100.00
46087;BME280;31824;49.648;8.640;2023-03-20T04:08:16;100640.59;;;9.08;100.00
46087;BME280;31824;49.648;8.640;2023-03-20T04:11:21;100650.63;;;9.12;100.00
46087;BME280;31824;49.648;8.640;2023-03-20T04:14:24;100644.13;;;9.09;100.00
46087;BME280;31824;49.648;8.640;2023-03-20T04:17:27;100653.25;;;9.12;100.00
46087;BME280;31824;49.648;8.640;2023-03-20T04:20:29;100652.13;;;9.10;100.00
46087;BME280;31824;49.648;8.640;2023-03-20T04:23:31;100654.16;;;9.13;100.00
46087;BME280;31824;49.648;8.640;2023-03-20T04:26:34;100651.38;;;9.11;100.00
46087;BME280;31824;49.648;8.640;2023-03-20T04:29:37;100650.28;;;9.09;100.00
46087;BME280;31824;49.648;8.640;2023-03-20T04:33:15;100652.44;;;9.13;100.00
46087;BME280;31824;49.648;8.640;2023-03-20T04:36:39;100649.81;;;9.13;100.00
46087;BME280;31824;49.648;8.640;2023-03-20T04:39:47;100654.31;;;9.15;100.00
46087;BME280;31824;49.648;8.640;2023-03-20T04:42:50;100648.59;;;9.10;100.00
46087;BME280;31824;49.648;8.640;2023-03-20T04:45:52;100643.34;;;9.10;100.00
46087;BME280;31824;49.648;8.640;2023-03-20T04:48:54;100652.75;;;9.08;100.00
46087;BME280;31824;49.648;8.640;2023-03-20T04:52:00;100647.66;;;9.09;100.00
46087;BME280;31824;49.648;8.640;2023-03-20T04:55:15;100655.06;;;9.13;100.00
46087;BME280;31824;49.648;8.640;2023-03-20T04:58:18;100659.56;;;9.15;100.00
46087;BME280;31824;49.648;8.640;2023-03-20T05:01:20;100660.66;;;9.17;100.00
46087;BME280;31824;49.648;8.640;2023-03-20T05:04:23;100672.22;;;9.19;100.00
46087;BME280;31824;49.648;8.640;2023-03-20T05:07:25;100665.91;;;9.17;100.00
46087;BME280;31824;49.648;8.640;2023-03-20T05:10:47;100663.88;;;9.14;100.00
46087;BME280;31824;49.648;8.640;2023-03-20T05:14:13;100670.03;;;9.15;100.00
46087;BME280;31824;49.648;8.640;2023-03-20T05:17:26;100665.91;;;9.17;100.00
46087;BME280;31824;49.648;8.640;2023-03-20T05:20:56;100676.56;;;9.18;100.00
46087;BME280;31824;49.648;8.640;2023-03-20T05:24:23;100682.38;;;9.16;100.00
46087;BME280;31824;49.648;8.640;2023-03-20T05:28:02;100685.00;;;9.16;100.00
46087;BME280;31824;49.648;8.640;2023-03-20T05:31:12;100683.47;;;9.18;100.00
46087;BME280;31824;49.648;8.640;2023-03-20T05:34:32;100679.00;;;9.17;100.00
46087;BME280;31824;49.648;8.640;2023-03-20T05:38:06;100676.56;;;9.18;100.00
46087;BME280;31824;49.648;8.640;2023-03-20T05:41:28;100668.34;;;9.15;100.00
46087;BME280;31824;49.648;8.640;2023-03-20T05:44:49;100667.56;;;9.16;100.00
46087;BME280;31824;49.648;8.640;2023-03-20T05:48:06;100664.34;;;9.19;100.00
46087;BME280;31824;49.648;8.640;2023-03-20T05:51:28;100665.72;;;9.15;100.00
46087;BME280;31824;49.648;8.640;2023-03-20T05:54:37;100644.81;;;9.24;100.00
46087;BME280;31824;49.648;8.640;2023-03-20T05:57:58;100642.50;;;9.27;100.00
46087;BME280;31824;49.648;8.640;2023-03-20T06:01:14;100656.72;;;9.29;100.00
46087;BME280;31824;49.648;8.640;2023-03-20T06:04:35;100659.78;;;9.34;100.00
46087;BME280;31824;49.648;8.640;2023-03-20T06:08:07;100666.25;;;9.28;100.00
46087;BME280;31824;49.648;8.640;2023-03-20T06:11:09;100662.09;;;9.31;100.00
46087;BME280;31824;49.648;8.640;2023-03-20T06:14:12;100673.94;;;9.27;100.00
46087;BME280;31824;49.648;8.640;2023-03-20T06:17:17;100688.16;;;9.29;100.00
46087;BME280;31824;49.648;8.640;2023-03-20T06:20:30;100697.09;;;9.31;100.00
46087;BME280;31824;49.648;8.640;2023-03-20T06:23:35;100695.88;;;9.27;100.00
46087;BME280;31824;49.648;8.640;2023-03-20T06:26:38;100699.88;;;9.33;100.00
46087;BME280;31824;49.648;8.640;2023-03-20T06:29:44;100693.84;;;9.25;100.00
46087;BME280;31824;49.648;8.640;2023-03-20T06:32:50;100694.16;;;9.28;100.00
46087;BME280;31824;49.648;8.640;2023-03-20T06:35:58;100700.16;;;9.27;100.00
46087;BME280;31824;49.648;8.640;2023-03-20T06:39:02;100706.06;;;9.33;100.00
46087;BME280;31824;49.648;8.640;2023-03-20T06:42:05;100701.28;;;9.29;100.00
46087;BME280;31824;49.648;8.640;2023-03-20T06:45:08;100707.59;;;9.31;100.00
46087;BME280;31824;49.648;8.640;2023-03-20T06:48:31;100710.06;;;9.29;100.00
46087;BME280;31824;49.648;8.640;2023-03-20T06:51:38;100714.69;;;9.32;100.00
46087;BME280;31824;49.648;8.640;2023-03-20T06:54:41;100715.47;;;9.31;100.00
46087;BME280;31824;49.648;8.640;2023-03-20T06:57:44;100716.06;;;9.28;100.00
46087;BME280;31824;49.648;8.640;2023-03-20T07:00:45;100722.25;;;9.29;100.00
46087;BME280;31824;49.648;8.640;2023-03-20T07:03:47;100724.44;;;9.33;100.00
46087;BME280;31824;49.648;8.640;2023-03-20T07:06:56;100726.91;;;9.32;100.00
46087;BME280;31824;49.648;8.640;2023-03-20T07:09:59;100720.06;;;9.25;100.00
46087;BME280;31824;49.648;8.640;2023-03-20T07:13:01;100716.34;;;9.23;100.00
46087;BME280;31824;49.648;8.640;2023-03-20T07:16:04;100725.91;;;9.22;100.00
46087;BME280;31824;49.648;8.640;2023-03-20T07:19:11;100719.13;;;9.24;100.00
46087;BME280;31824;49.648;8.640;2023-03-20T07:22:21;100724.53;;;9.26;100.00
46087;BME280;31824;49.648;8.640;2023-03-20T07:25:26;100715.91;;;9.27;100.00
46087;BME280;31824;49.648;8.640;2023-03-20T07:28:46;100718.38;;;9.34;100.00
46087;BME280;31824;49.648;8.640;2023-03-20T07:31:55;100722.84;;;9.26;100.00
46087;BME280;31824;49.648;8.640;2023-03-20T07:35:03;100725.63;;;9.28;100.00
46087;BME280;31824;49.648;8.640;2023-03-20T07:38:07;100731.75;;;9.20;100.00
46087;BME280;31824;49.648;8.640;2023-03-20T07:41:20;100736.56;;;9.24;100.00
46087;BME280;31824;49.648;8.640;2023-03-20T07:44:35;100736.13;;;9.28;100.00
46087;BME280;31824;49.648;8.640;2023-03-20T07:47:42;100735.22;;;9.36;100.00
46087;BME280;31824;49.648;8.640;2023-03-20T07:50:44;100740.91;;;9.32;100.00
46087;BME280;31824;49.648;8.640;2023-03-20T07:53:48;100740.47;;;9.36;100.00
46087;BME280;31824;49.648;8.640;2023-03-20T07:56:52;100746.59;;;9.28;100.00
46087;BME280;31824;49.648;8.640;2023-03-20T07:59:54;100743.31;;;9.22;100.00
46087;BME280;31824;49.648;8.640;2023-03-20T08:02:56;100747.53;;;9.28;100.00
46087;BME280;31824;49.648;8.640;2023-03-20T08:05:58;100746.75;;;9.29;100.00
46087;BME280;31824;49.648;8.640;2023-03-20T08:09:03;100750.94;;;9.27;100.00
46087;BME280;31824;49.648;8.640;2023-03-20T08:12:05;100746.16;;;9.32;100.00
46087;BME280;31824;49.648;8.640;2023-03-20T08:15:07;100752.59;;;9.27;100.00
46087;BME280;31824;49.648;8.640;2023-03-20T08:18:09;100755.97;;;9.26;100.00
46087;BME280;31824;49.648;8.640;2023-03-20T08:21:11;100750.31;;;9.30;100.00
46087;BME280;31824;49.648;8.640;2023-03-20T08:24:15;100758.16;;;9.30;100.00
46087;BME280;31824;49.648;8.640;2023-03-20T08:27:17;100755.06;;;9.25;100.00
46087;BME280;31824;49.648;8.640;2023-03-20T08:30:18;100766.91;;;9.22;100.00
46087;BME280;31824;49.648;8.640;2023-03-20T08:33:20;100761.06;;;9.24;100.00
46087;BME280;31824;49.648;8.640;2023-03-20T08:36:22;100764.22;;;9.38;100.00
46087;BME280;31824;49.648;8.640;2023-03-20T08:39:26;100764.91;;;9.44;100.00
46087;BME280;31824;49.648;8.640;2023-03-20T08:42:28;100764.38;;;9.39;100.00
46087;BME280;31824;49.648;8.640;2023-03-20T08:45:29;100772.06;;;9.29;100.00
46087;BME280;31824;49.648;8.640;2023-03-20T08:48:31;100782.88;;;9.32;100.00
46087;BME280;31824;49.648;8.640;2023-03-20T08:51:33;100771.91;;;9.27;100.00
46087;BME280;31824;49.648;8.640;2023-03-20T08:54:36;100785.06;;;9.36;100.00
46087;BME280;31824;49.648;8.640;2023-03-20T08:57:39;100789.53;;;9.37;100.00
46087;BME280;31824;49.648;8.640;2023-03-20T09:00:42;100795.09;;;9.40;100.00
46087;BME280;31824;49.648;8.640;2023-03-20T09:03:44;100787.53;;;9.35;100.00
46087;BME280;31824;49.648;8.640;2023-03-20T09:06:46;100789.38;;;9.36;100.00
46087;BME280;31824;49.648;8.640;2023-03-20T09:09:49;100791.81;;;9.34;100.00
46087;BME280;31824;49.648;8.640;2023-03-20T09:12:52;100799.69;;;9.34;100.00
46087;BME280;31824;49.648;8.640;2023-03-20T09:15:54;100787.34;;;9.33;100.00
46087;BME280;31824;49.648;8.640;2023-03-20T09:18:57;100793.69;;;9.35;100.00
46087;BME280;31824;49.648;8.640;2023-03-20T09:21:59;100798.84;;;9.42;100.00
46087;BME280;31824;49.648;8.640;2023-03-20T09:25:04;100796.53;;;9.45;100.00
46087;BME280;31824;49.648;8.640;2023-03-20T09:28:06;100802.09;;;9.49;100.00
46087;BME280;31824;49.648;8.640;2023-03-20T09:31:09;100804.34;;;9.61;100.00
46087;BME280;31824;49.648;8.640;2023-03-20T09:34:10;100802.19;;;9.66;100.00
46087;BME280;31824;49.648;8.640;2023-03-20T09:37:12;100806.56;;;9.83;100.00
46087;BME280;31824;49.648;8.640;2023-03-20T09:40:24;100809.56;;;9.95;100.00
46087;BME280;31824;49.648;8.640;2023-03-20T09:43:37;100804.97;;;10.01;100.00
46087;BME280;31824;49.648;8.640;2023-03-20T09:47:06;100803.56;;;10.05;100.00
46087;BME280;31824;49.648;8.640;2023-03-20T09:50:27;100807.34;;;10.24;100.00
46087;BME280;31824;49.648;8.640;2023-03-20T09:53:34;100801.56;;;10.44;100.00
46087;BME280;31824;49.648;8.640;2023-03-20T09:56:39;100805.94;;;10.96;100.00
46087;BME280;31824;49.648;8.640;2023-03-20T09:59:41;100803.59;;;10.82;100.00
46087;BME280;31824;49.648;8.640;2023-03-20T10:02:48;100800.81;;;10.80;100.00
46087;BME280;31824;49.648;8.640;2023-03-20T10:05:56;100800.50;;;10.77;100.00
46087;BME280;31824;49.648;8.640;2023-03-20T10:09:01;100804.34;;;10.81;100.00
46087;BME280;31824;49.648;8.640;2023-03-20T10:12:20;100803.28;;;10.79;100.00
46087;BME280;31824;49.648;8.640;2023-03-20T10:15:32;100796.31;;;10.97;100.00
46087;BME280;31824;49.648;8.640;2023-03-20T10:18:39;100793.84;;;11.07;100.00
46087;BME280;31824;49.648;8.640;2023-03-20T10:21:45;100795.19;;;11.30;100.00
46087;BME280;31824;49.648;8.640;2023-03-20T10:24:53;100793.53;;;10.95;100.00
46087;BME280;31824;49.648;8.640;2023-03-20T10:27:59;100794.16;;;11.10;100.00
46087;BME280;31824;49.648;8.640;2023-03-20T10:31:14;100787.94;;;11.19;100.00
46087;BME280;31824;49.648;8.640;2023-03-20T10:34:30;100790.13;;;11.31;100.00
46087;BME280;31824;49.648;8.640;2023-03-20T10:37:43;100788.38;;;11.95;100.00
46087;BME280;31824;49.648;8.640;2023-03-20T10:40:49;100791.88;;;12.60;100.00
46087;BME280;31824;49.648;8.640;2023-03-20T10:43:54;100787.00;;;12.45;100.00
46087;BME280;31824;49.648;8.640;2023-03-20T10:46:58;100778.34;;;12.19;100.00
46087;BME280;31824;49.648;8.640;2023-03-20T10:50:05;100779.34;;;12.02;100.00
46087;BME280;31824;49.648;8.640;2023-03-20T10:53:19;100778.16;;;11.89;100.00
46087;BME280;31824;49.648;8.640;2023-03-20T10:56:26;100780.63;;;12.24;100.00
46087;BME280;31824;49.648;8.640;2023-03-20T10:59:35;100766.78;;;12.08;100.00
46087;BME280;31824;49.648;8.640;2023-03-20T11:02:39;100772.34;;;12.58;100.00
46087;BME280;31824;49.648;8.640;2023-03-20T11:05:41;100783.25;;;12.90;100.00
46087;BME280;31824;49.648;8.640;2023-03-20T11:08:47;100765.50;;;12.41;100.00
46087;BME280;31824;49.648;8.640;2023-03-20T11:11:52;100778.06;;;12.81;100.00
46087;BME280;31824;49.648;8.640;2023-03-20T11:15:13;100771.50;;;12.87;100.00
46087;BME280;31824;49.648;8.640;2023-03-20T11:18:15;100768.91;;;12.97;100.00
46087;BME280;31824;49.648;8.640;2023-03-20T11:21:19;100773.03;;;13.04;100.00
46087;BME280;31824;49.648;8.640;2023-03-20T11:24:26;100757.34;;;13.05;100.00
46087;BME280;31824;49.648;8.640;2023-03-20T11:27:31;100759.91;;;13.14;100.00
46087;BME280;31824;49.648;8.640;2023-03-20T11:30:40;100760.91;;;13.35;100.00
46087;BME280;31824;49.648;8.640;2023-03-20T11:34:21;100755.44;;;13.13;100.00
46087;BME280;31824;49.648;8.640;2023-03-20T11:37:26;100760.09;;;12.96;100.00
46087;BME280;31824;49.648;8.640;2023-03-20T11:40:31;100754.50;;;13.12;100.00
46087;BME280;31824;49.648;8.640;2023-03-20T11:43:37;100749.13;;;13.40;100.00
46087;BME280;31824;49.648;8.640;2023-03-20T11:46:40;100753.75;;;13.24;100.00
46087;BME280;31824;49.648;8.640;2023-03-20T11:49:45;100745.75;;;13.03;100.00
46087;BME280;31824;49.648;8.640;2023-03-20T11:52:48;100750.59;;;12.79;100.00
46087;BME280;31824;49.648;8.640;2023-03-20T11:56:01;100736.88;;;12.54;100.00
46087;BME280;31824;49.648;8.640;2023-03-20T11:59:11;100735.38;;;12.47;100.00
46087;BME280;31824;49.648;8.640;2023-03-20T12:02:19;100734.94;;;12.62;100.00
46087;BME280;31824;49.648;8.640;2023-03-20T12:05:29;100736.09;;;12.55;100.00
46087;BME280;31824;49.648;8.640;2023-03-20T12:08:34;100732.00;;;12.40;100.00
46087;BME280;31824;49.648;8.640;2023-03-20T12:11:45;100729.53;;;12.60;100.00
46087;BME280;31824;49.648;8.640;2023-03-20T12:14:54;100721.06;;;12.54;100.00
46087;BME280;31824;49.648;8.640;2023-03-20T12:18:00;100717.22;;;12.50;100.00
46087;BME280;31824;49.648;8.640;2023-03-20T12:21:06;100712.22;;;12.54;100.00
46087;BME280;31824;49.648;8.640;2023-03-20T12:24:12;100710.72;;;12.66;100.00
46087;BME280;31824;49.648;8.640;2023-03-20T12:27:23;100719.38;;;13.03;100.00
46087;BME280;31824;49.648;8.640;2023-03-20T12:30:31;100708.03;;;13.04;100.00
46087;BME280;31824;49.648;8.640;2023-03-20T12:33:43;100704.38;;;13.12;100.00
46087;BME280;31824;49.648;8.640;2023-03-20T12:36:47;100704.78;;;13.17;100.00
46087;BME280;31824;49.648;8.640;2023-03-20T12:39:52;100697.13;;;13.10;100.00
46087;BME280;31824;49.648;8.640;2023-03-20T12:43:02;100694.69;;;13.32;100.00
46087;BME280;31824;49.648;8.640;2023-03-20T12:46:14;100686.06;;;13.24;100.00
46087;BME280;31824;49.648;8.640;2023-03-20T12:49:29;100691.78;;;13.29;100.00
46087;BME280;31824;49.648;8.640;2023-03-20T12:52:43;100680.50;;;13.40;100.00
46087;BME280;31824;49.648;8.640;2023-03-20T12:56:00;100684.78;;;13.69;100.00
46087;BME280;31824;49.648;8.640;2023-03-20T12:59:09;100678.44;;;13.77;100.00
46087;BME280;31824;49.648;8.640;2023-03-20T13:02:26;100668.94;;;13.90;100.00
46087;BME280;31824;49.648;8.640;2023-03-20T13:05:39;100660.25;;;13.80;100.00
46087;BME280;31824;49.648;8.640;2023-03-20T13:09:05;100666.44;;;13.81;100.00
46087;BME280;31824;49.648;8.640;2023-03-20T13:12:23;100660.47;;;13.73;100.00
46087;BME280;31824;49.648;8.640;2023-03-20T13:15:46;100661.28;;;13.62;100.00
46087;BME280;31824;49.648;8.640;2023-03-20T13:18:57;100662.59;;;13.67;100.00
46087;BME280;31824;49.648;8.640;2023-03-20T13:22:07;100659.50;;;13.42;100.00
46087;BME280;31824;49.648;8.640;2023-03-20T13:25:24;100651.41;;;13.70;100.00
46087;BME280;31824;49.648;8.640;2023-03-20T13:28:34;100652.16;;;13.48;100.00
46087;BME280;31824;49.648;8.640;2023-03-20T13:31:51;100648.72;;;13.59;100.00
46087;BME280;31824;49.648;8.640;2023-03-20T13:35:13;100646.88;;;13.58;100.00
46087;BME280;31824;49.648;8.640;2023-03-20T13:38:23;100639.25;;;13.61;100.00
46087;BME280;31824;49.648;8.640;2023-03-20T13:41:27;100630.50;;;13.62;100.00
46087;BME280;31824;49.648;8.640;2023-03-20T13:44:31;100629.59;;;13.62;100.00
46087;BME280;31824;49.648;8.640;2023-03-20T13:47:35;100638.00;;;13.47;100.00
46087;BME280;31824;49.648;8.640;2023-03-20T13:50:43;100630.81;;;13.86;100.00
46087;BME280;31824;49.648;8.640;2023-03-20T13:53:56;100622.06;;;13.66;100.00
46087;BME280;31824;49.648;8.640;2023-03-20T13:57:10;100623.13;;;13.79;100.00
46087;BME280;31824;49.648;8.640;2023-03-20T14:00:24;100620.22;;;13.55;100.00
46087;BME280;31824;49.648;8.640;2023-03-20T14:03:31;100615.47;;;13.92;100.00
46087;BME280;31824;49.648;8.640;2023-03-20T14:06:47;100612.13;;;14.15;100.00
46087;BME280;31824;49.648;8.640;2023-03-20T14:09:52;100611.25;;;13.84;100.00
46087;BME280;31824;49.648;8.640;2023-03-20T14:12:58;100601.97;;;14.10;100.00
46087;BME280;31824;49.648;8.640;2023-03-20T14:16:03;100599.88;;;14.06;100.00
46087;BME280;31824;49.648;8.640;2023-03-20T14:19:17;100587.97;;;14.00;100.00
46087;BME280;31824;49.648;8.640;2023-03-20T14:22:21;100591.00;;;14.15;100.00
46087;BME280;31824;49.648;8.640;2023-03-20T14:25:28;100597.78;;;14.12;100.00
46087;BME280;31824;49.648;8.640;2023-03-20T14:28:44;100600.66;;;14.15;100.00
46087;BME280;31824;49.648;8.640;2023-03-20T14:31:48;100602.22;;;14.13;100.00
46087;BME280;31824;49.648;8.640;2023-03-20T14:34:51;100605.34;;;14.40;100.00
46087;BME280;31824;49.648;8.640;2023-03-20T14:41:21;100607.81;;;14.16;100.00
46087;BME280;31824;49.648;8.640;2023-03-20T14:44:35;100611.22;;;14.15;100.00
46087;BME280;31824;49.648;8.640;2023-03-20T14:47:45;100602.00;;;13.99;100.00
46087;BME280;31824;49.648;8.640;2023-03-20T14:50:53;100604.78;;;13.80;100.00
46087;BME280;31824;49.648;8.640;2023-03-20T14:54:23;100604.00;;;14.65;100.00
46087;BME280;31824;49.648;8.640;2023-03-20T14:57:29;100591.47;;;14.42;100.00
46087;BME280;31824;49.648;8.640;2023-03-20T15:00:44;100600.19;;;14.51;100.00
46087;BME280;31824;49.648;8.640;2023-03-20T15:03:48;100599.38;;;15.17;100.00
46087;BME280;31824;49.648;8.640;2023-03-20T15:06:54;100597.25;;;15.01;100.00
46087;BME280;31824;49.648;8.640;2023-03-20T15:09:59;100601.59;;;15.79;100.00
46087;BME280;31824;49.648;8.640;2023-03-20T15:13:06;100602.13;;;14.97;100.00
46087;BME280;31824;49.648;8.640;2023-03-20T15:16:08;100601.03;;;14.83;100.00
46087;BME280;31824;49.648;8.640;2023-03-20T15:19:16;100601.91;;;15.16;100.00
46087;BME280;31824;49.648;8.640;2023-03-20T15:22:19;100595.31;;;14.35;100.00
46087;BME280;31824;49.648;8.640;2023-03-20T15:25:27;100601.00;;;14.40;100.00
46087;BME280;31824;49.648;8.640;2023-03-20T15:28:32;100602.78;;;14.72;100.00
46087;BME280;31824;49.648;8.640;2023-03-20T15:31:39;100608.91;;;14.50;100.00
46087;BME280;31824;49.648;8.640;2023-03-20T15:34:42;100602.00;;;13.68;100.00
46087;BME280;31824;49.648;8.640;2023-03-20T15:37:46;100609.06;;;14.42;100.00
46087;BME280;31824;49.648;8.640;2023-03-20T15:40:48;100602.41;;;13.63;100.00
46087;BME280;31824;49.648;8.640;2023-03-20T15:44:02;100603.19;;;13.41;100.00
46087;BME280;31824;49.648;8.640;2023-03-20T15:47:11;100602.41;;;13.73;100.00
46087;BME280;31824;49.648;8.640;2023-03-20T15:50:14;100607.28;;;13.58;100.00
46087;BME280;31824;49.648;8.640;2023-03-20T15:53:18;100608.75;;;13.15;100.00
46087;BME280;31824;49.648;8.640;2023-03-20T15:56:24;100608.03;;;12.97;100.00
46087;BME280;31824;49.648;8.640;2023-03-20T15:59:31;100605.41;;;12.97;100.00
46087;BME280;31824;49.648;8.640;2023-03-20T16:02:35;100607.03;;;13.15;100.00
46087;BME280;31824;49.648;8.640;2023-03-20T16:05:41;100613.41;;;13.28;100.00
46087;BME280;31824;49.648;8.640;2023-03-20T16:08:43;100603.38;;;13.34;100.00
46087;BME280;31824;49.648;8.640;2023-03-20T16:11:53;100610.03;;;13.39;100.00
46087;BME280;31824;49.648;8.640;2023-03-20T16:14:59;100602.56;;;13.14;100.00
46087;BME280;31824;49.648;8.640;2023-03-20T16:18:03;100614.97;;;13.26;100.00
46087;BME280;31824;49.648;8.640;2023-03-20T16:21:06;100613.56;;;12.90;100.00